sensor_id;sensor_type;location;lat;lon;timestamp;temperature;humidity
5086;DHT22;4715;51.660;7.082;2022-12-29T00:00:45;10.20;99.90
5086;DHT22;4715;51.660;7.082;2022-12-29T00:03:09;10.20;99.90
5086;DHT22;4715;51.660;7.082;2022-12-29T00:05:33;10.20;99.90
5086;DHT22;4715;51.660;7.082;2022-12-29T00:07:55;10.30;99.90
5086;DHT22;4715;51.660;7.082;2022-12-29T00:10:17;10.30;99.90
5086;DHT22;4715;51.660;7.082;2022-12-29T00:12:39;10.30;99.90
5086;DHT22;4715;51.660;7.082;2022-12-29T00:15:18;10.40;99.90
5086;DHT22;4715;51.660;7.082;2022-12-29T00:17:59;10.40;99.90
5086;DHT22;4715;51.660;7.082;2022-12-29T00:20:22;10.40;99.90
5086;DHT22;4715;51.660;7.082;2022-12-29T00:23:01;10.40;99.90
5086;DHT22;4715;51.660;7.082;2022-12-29T00:25:40;10.40;99.90
5086;DHT22;4715;51.660;7.082;2022-12-29T00:28:19;10.40;99.90
5086;DHT22;4715;51.660;7.082;2022-12-29T00:30:59;10.40;99.90
5086;DHT22;4715;51.660;7.082;2022-12-29T00:33:38;10.40;99.90
5086;DHT22;4715;51.660;7.082;2022-12-29T00:36:19;10.40;99.90
5086;DHT22;4715;51.660;7.082;2022-12-29T00:38:48;10.40;99.90
5086;DHT22;4715;51.660;7.082;2022-12-29T00:41:29;10.30;99.90
5086;DHT22;4715;51.660;7.082;2022-12-29T00:44:09;10.30;99.90
5086;DHT22;4715;51.660;7.082;2022-12-29T00:46:32;10.30;99.90
5086;DHT22;4715;51.660;7.082;2022-12-29T00:48:55;10.20;99.90
5086;DHT22;4715;51.660;7.082;2022-12-29T00:51:36;10.20;99.90
5086;DHT22;4715;51.660;7.082;2022-12-29T00:53:58;10.20;99.90
5086;DHT22;4715;51.660;7.082;2022-12-29T00:56:21;10.20;99.90
5086;DHT22;4715;51.660;7.082;2022-12-29T00:58:43;10.20;99.90
5086;DHT22;4715;51.660;7.082;2022-12-29T01:01:06;10.20;99.90
5086;DHT22;4715;51.660;7.082;2022-12-29T01:03:29;10.20;99.90
5086;DHT22;4715;51.660;7.082;2022-12-29T01:05:52;10.20;99.90
5086;DHT22;4715;51.660;7.082;2022-12-29T01:08:15;10.30;99.90
5086;DHT22;4715;51.660;7.082;2022-12-29T01:10:38;10.30;99.90
5086;DHT22;4715;51.660;7.082;2022-12-29T01:13:02;10.30;99.90
5086;DHT22;4715;51.660;7.082;2022-12-29T01:15:25;10.30;99.90
5086;DHT22;4715;51.660;7.082;2022-12-29T01:17:47;10.30;99.90
5086;DHT22;4715;51.660;7.082;2022-12-29T01:20:10;10.30;99.90
5086;DHT22;4715;51.660;7.082;2022-12-29T01:22:33;10.30;99.90
5086;DHT22;4715;51.660;7.082;2022-12-29T01:24:58;10.30;99.90
5086;DHT22;4715;51.660;7.082;2022-12-29T01:27:20;10.20;99.90
5086;DHT22;4715;51.660;7.082;2022-12-29T01:29:44;10.20;99.90
5086;DHT22;4715;51.660;7.082;2022-12-29T01:32:06;10.20;99.90
5086;DHT22;4715;51.660;7.082;2022-12-29T01:34:28;10.20;99.90
5086;DHT22;4715;51.660;7.082;2022-12-29T01:36:50;10.30;99.90
5086;DHT22;4715;51.660;7.082;2022-12-29T01:39:12;10.30;99.90
5086;DHT22;4715;51.660;7.082;2022-12-29T01:41:35;10.30;99.90
5086;DHT22;4715;51.660;7.082;2022-12-29T01:43:59;10.40;99.90
5086;DHT22;4715;51.660;7.082;2022-12-29T01:46:25;10.40;99.90
5086;DHT22;4715;51.660;7.082;2022-12-29T01:48:49;10.40;99.90
5086;DHT22;4715;51.660;7.082;2022-12-29T01:51:14;10.40;99.90
5086;DHT22;4715;51.660;7.082;2022-12-29T01:53:38;10.50;99.90
5086;DHT22;4715;51.660;7.082;2022-12-29T01:56:05;10.50;99.90
5086;DHT22;4715;51.660;7.082;2022-12-29T01:58:33;10.50;99.90
5086;DHT22;4715;51.660;7.082;2022-12-29T02:01:00;10.60;99.90
5086;DHT22;4715;51.660;7.082;2022-12-29T02:03:24;10.60;99.90
5086;DHT22;4715;51.660;7.082;2022-12-29T02:05:50;10.70;99.90
5086;DHT22;4715;51.660;7.082;2022-12-29T02:08:14;10.80;99.90
5086;DHT22;4715;51.660;7.082;2022-12-29T02:10:36;10.80;99.90
5086;DHT22;4715;51.660;7.082;2022-12-29T02:13:02;10.90;99.90
5086;DHT22;4715;51.660;7.082;2022-12-29T02:15:35;10.90;99.90
5086;DHT22;4715;51.660;7.082;2022-12-29T02:18:12;11.00;99.90
5086;DHT22;4715;51.660;7.082;2022-12-29T02:21:06;11.00;99.90
5086;DHT22;4715;51.660;7.082;2022-12-29T02:23:53;11.10;99.90
5086;DHT22;4715;51.660;7.082;2022-12-29T02:26:41;11.20;99.90
5086;DHT22;4715;51.660;7.082;2022-12-29T02:32:20;11.40;99.90
5086;DHT22;4715;51.660;7.082;2022-12-29T02:34:52;11.40;99.90
5086;DHT22;4715;51.660;7.082;2022-12-29T02:37:22;11.50;99.90
5086;DHT22;4715;51.660;7.082;2022-12-29T02:39:51;11.50;99.90
5086;DHT22;4715;51.660;7.082;2022-12-29T02:42:22;11.60;99.90
5086;DHT22;4715;51.660;7.082;2022-12-29T02:44:55;11.60;99.90
5086;DHT22;4715;51.660;7.082;2022-12-29T02:47:24;11.60;99.90
5086;DHT22;4715;51.660;7.082;2022-12-29T02:49:55;11.70;99.90
5086;DHT22;4715;51.660;7.082;2022-12-29T02:52:22;11.70;99.90
5086;DHT22;4715;51.660;7.082;2022-12-29T02:54:48;11.70;99.90
5086;DHT22;4715;51.660;7.082;2022-12-29T02:57:15;11.70;99.90
5086;DHT22;4715;51.660;7.082;2022-12-29T02:59:38;11.80;99.90
5086;DHT22;4715;51.660;7.082;2022-12-29T03:05:41;11.80;99.90
5086;DHT22;4715;51.660;7.082;2022-12-29T03:08:14;11.80;99.90
5086;DHT22;4715;51.660;7.082;2022-12-29T03:10:46;11.80;99.90
5086;DHT22;4715;51.660;7.082;2022-12-29T03:13:20;11.90;99.90
5086;DHT22;4715;51.660;7.082;2022-12-29T03:16:07;11.90;99.90
5086;DHT22;4715;51.660;7.082;2022-12-29T03:18:41;11.90;99.90
5086;DHT22;4715;51.660;7.082;2022-12-29T03:21:10;11.90;99.90
5086;DHT22;4715;51.660;7.082;2022-12-29T03:23:34;11.90;99.90
5086;DHT22;4715;51.660;7.082;2022-12-29T03:26:00;11.90;99.90
5086;DHT22;4715;51.660;7.082;2022-12-29T03:28:27;11.90;99.90
5086;DHT22;4715;51.660;7.082;2022-12-29T03:30:50;11.90;99.90
5086;DHT22;4715;51.660;7.082;2022-12-29T03:33:14;11.90;99.90
5086;DHT22;4715;51.660;7.082;2022-12-29T03:35:39;11.90;99.90
5086;DHT22;4715;51.660;7.082;2022-12-29T03:38:08;11.80;99.90
5086;DHT22;4715;51.660;7.082;2022-12-29T03:40:33;11.80;99.90
5086;DHT22;4715;51.660;7.082;2022-12-29T03:42:56;11.80;99.90
5086;DHT22;4715;51.660;7.082;2022-12-29T03:45:19;11.80;99.90
5086;DHT22;4715;51.660;7.082;2022-12-29T03:47:41;11.70;99.90
5086;DHT22;4715;51.660;7.082;2022-12-29T03:50:04;11.70;99.90
5086;DHT22;4715;51.660;7.082;2022-12-29T03:52:28;11.60;99.90
5086;DHT22;4715;51.660;7.082;2022-12-29T03:54:52;11.40;99.90
5086;DHT22;4715;51.660;7.082;2022-12-29T03:57:14;11.20;99.90
5086;DHT22;4715;51.660;7.082;2022-12-29T03:59:36;11.00;99.90
5086;DHT22;4715;51.660;7.082;2022-12-29T04:01:58;10.80;99.90
5086;DHT22;4715;51.660;7.082;2022-12-29T04:04:20;10.70;99.90
5086;DHT22;4715;51.660;7.082;2022-12-29T04:06:42;10.60;99.90
5086;DHT22;4715;51.660;7.082;2022-12-29T04:09:05;10.60;99.90
5086;DHT22;4715;51.660;7.082;2022-12-29T04:11:28;10.50;99.90
5086;DHT22;4715;51.660;7.082;2022-12-29T04:13:50;10.50;99.90
5086;DHT22;4715;51.660;7.082;2022-12-29T04:16:12;10.60;99.90
5086;DHT22;4715;51.660;7.082;2022-12-29T04:18:34;10.60;99.90
5086;DHT22;4715;51.660;7.082;2022-12-29T04:20:56;10.70;99.90
5086;DHT22;4715;51.660;7.082;2022-12-29T04:23:24;10.70;99.90
5086;DHT22;4715;51.660;7.082;2022-12-29T04:25:46;10.80;99.90
5086;DHT22;4715;51.660;7.082;2022-12-29T04:28:09;10.90;99.90
5086;DHT22;4715;51.660;7.082;2022-12-29T04:30:31;11.00;99.90
5086;DHT22;4715;51.660;7.082;2022-12-29T04:32:53;11.00;99.90
5086;DHT22;4715;51.660;7.082;2022-12-29T04:35:15;11.10;99.90
5086;DHT22;4715;51.660;7.082;2022-12-29T04:37:37;11.10;99.90
5086;DHT22;4715;51.660;7.082;2022-12-29T04:39:59;11.10;99.90
5086;DHT22;4715;51.660;7.082;2022-12-29T04:42:21;11.10;99.90
5086;DHT22;4715;51.660;7.082;2022-12-29T04:44:45;11.10;99.90
5086;DHT22;4715;51.660;7.082;2022-12-29T04:47:07;11.20;99.90
5086;DHT22;4715;51.660;7.082;2022-12-29T04:49:28;11.20;99.90
5086;DHT22;4715;51.660;7.082;2022-12-29T04:51:50;11.20;99.90
5086;DHT22;4715;51.660;7.082;2022-12-29T04:54:12;11.30;99.90
5086;DHT22;4715;51.660;7.082;2022-12-29T04:56:34;11.40;99.90
5086;DHT22;4715;51.660;7.082;2022-12-29T04:58:56;11.50;99.90
5086;DHT22;4715;51.660;7.082;2022-12-29T05:01:19;11.60;99.90
5086;DHT22;4715;51.660;7.082;2022-12-29T05:03:41;11.60;99.90
5086;DHT22;4715;51.660;7.082;2022-12-29T05:06:05;11.50;99.90
5086;DHT22;4715;51.660;7.082;2022-12-29T05:08:27;11.10;99.90
5086;DHT22;4715;51.660;7.082;2022-12-29T05:10:50;10.60;99.90
5086;DHT22;4715;51.660;7.082;2022-12-29T05:13:13;10.30;99.90
5086;DHT22;4715;51.660;7.082;2022-12-29T05:15:35;10.00;99.90
5086;DHT22;4715;51.660;7.082;2022-12-29T05:17:58;9.80;99.90
5086;DHT22;4715;51.660;7.082;2022-12-29T05:20:21;9.70;99.90
5086;DHT22;4715;51.660;7.082;2022-12-29T05:22:43;9.60;99.90
5086;DHT22;4715;51.660;7.082;2022-12-29T05:25:06;9.60;99.90
5086;DHT22;4715;51.660;7.082;2022-12-29T05:27:28;9.50;99.90
5086;DHT22;4715;51.660;7.082;2022-12-29T05:29:50;9.50;99.90
5086;DHT22;4715;51.660;7.082;2022-12-29T05:32:13;9.40;99.90
5086;DHT22;4715;51.660;7.082;2022-12-29T05:34:37;9.40;99.90
5086;DHT22;4715;51.660;7.082;2022-12-29T05:36:59;9.40;99.90
5086;DHT22;4715;51.660;7.082;2022-12-29T05:39:23;9.40;99.90
5086;DHT22;4715;51.660;7.082;2022-12-29T05:41:45;9.40;99.90
5086;DHT22;4715;51.660;7.082;2022-12-29T05:44:07;9.40;99.90
5086;DHT22;4715;51.660;7.082;2022-12-29T05:46:30;9.40;99.90
5086;DHT22;4715;51.660;7.082;2022-12-29T05:48:51;9.40;99.90
5086;DHT22;4715;51.660;7.082;2022-12-29T05:51:16;9.40;99.90
5086;DHT22;4715;51.660;7.082;2022-12-29T05:53:38;9.50;99.90
5086;DHT22;4715;51.660;7.082;2022-12-29T05:56:00;9.50;99.90
5086;DHT22;4715;51.660;7.082;2022-12-29T05:58:22;9.50;99.90
5086;DHT22;4715;51.660;7.082;2022-12-29T06:00:44;9.50;99.90
5086;DHT22;4715;51.660;7.082;2022-12-29T06:03:07;9.60;99.90
5086;DHT22;4715;51.660;7.082;2022-12-29T06:05:31;9.60;99.90
5086;DHT22;4715;51.660;7.082;2022-12-29T06:07:55;9.70;99.90
5086;DHT22;4715;51.660;7.082;2022-12-29T06:10:17;9.70;99.90
5086;DHT22;4715;51.660;7.082;2022-12-29T06:12:41;9.80;99.90
5086;DHT22;4715;51.660;7.082;2022-12-29T06:15:05;9.90;99.90
5086;DHT22;4715;51.660;7.082;2022-12-29T06:17:27;9.90;99.90
5086;DHT22;4715;51.660;7.082;2022-12-29T06:19:49;10.00;99.90
5086;DHT22;4715;51.660;7.082;2022-12-29T06:22:11;10.10;99.90
5086;DHT22;4715;51.660;7.082;2022-12-29T06:24:39;10.10;99.90
5086;DHT22;4715;51.660;7.082;2022-12-29T06:27:01;10.20;99.90
5086;DHT22;4715;51.660;7.082;2022-12-29T06:29:24;10.30;99.90
5086;DHT22;4715;51.660;7.082;2022-12-29T06:31:46;10.30;99.90
5086;DHT22;4715;51.660;7.082;2022-12-29T06:34:11;10.40;99.90
5086;DHT22;4715;51.660;7.082;2022-12-29T06:36:33;10.40;99.90
5086;DHT22;4715;51.660;7.082;2022-12-29T06:38:55;10.40;99.90
5086;DHT22;4715;51.660;7.082;2022-12-29T06:41:18;10.40;99.90
5086;DHT22;4715;51.660;7.082;2022-12-29T06:43:40;10.50;99.90
5086;DHT22;4715;51.660;7.082;2022-12-29T06:46:02;10.50;99.90
5086;DHT22;4715;51.660;7.082;2022-12-29T06:48:24;10.50;99.90
5086;DHT22;4715;51.660;7.082;2022-12-29T06:50:45;10.50;99.90
5086;DHT22;4715;51.660;7.082;2022-12-29T06:53:07;10.50;99.90
5086;DHT22;4715;51.660;7.082;2022-12-29T06:55:29;10.50;99.90
5086;DHT22;4715;51.660;7.082;2022-12-29T06:57:55;10.50;99.90
5086;DHT22;4715;51.660;7.082;2022-12-29T07:00:17;10.60;99.90
5086;DHT22;4715;51.660;7.082;2022-12-29T07:02:39;10.60;99.90
5086;DHT22;4715;51.660;7.082;2022-12-29T07:05:03;10.70;99.90
5086;DHT22;4715;51.660;7.082;2022-12-29T07:07:25;10.80;99.90
5086;DHT22;4715;51.660;7.082;2022-12-29T07:09:47;10.80;99.90
5086;DHT22;4715;51.660;7.082;2022-12-29T07:12:09;10.80;99.90
5086;DHT22;4715;51.660;7.082;2022-12-29T07:14:32;10.90;99.90
5086;DHT22;4715;51.660;7.082;2022-12-29T07:16:54;10.90;99.90
5086;DHT22;4715;51.660;7.082;2022-12-29T07:19:16;10.90;99.90
5086;DHT22;4715;51.660;7.082;2022-12-29T07:21:38;10.90;99.90
5086;DHT22;4715;51.660;7.082;2022-12-29T07:23:59;10.90;99.90
5086;DHT22;4715;51.660;7.082;2022-12-29T07:26:21;10.90;99.90
5086;DHT22;4715;51.660;7.082;2022-12-29T07:28:44;10.90;99.90
5086;DHT22;4715;51.660;7.082;2022-12-29T07:31:14;10.80;99.90
5086;DHT22;4715;51.660;7.082;2022-12-29T07:33:36;10.80;99.90
5086;DHT22;4715;51.660;7.082;2022-12-29T07:35:59;10.80;99.90
5086;DHT22;4715;51.660;7.082;2022-12-29T07:38:21;10.80;99.90
5086;DHT22;4715;51.660;7.082;2022-12-29T07:40:43;10.80;99.90
5086;DHT22;4715;51.660;7.082;2022-12-29T07:43:05;10.80;99.90
5086;DHT22;4715;51.660;7.082;2022-12-29T07:45:27;10.80;99.90
5086;DHT22;4715;51.660;7.082;2022-12-29T07:47:50;10.90;99.90
5086;DHT22;4715;51.660;7.082;2022-12-29T07:50:12;10.90;99.90
5086;DHT22;4715;51.660;7.082;2022-12-29T07:52:33;10.90;99.90
5086;DHT22;4715;51.660;7.082;2022-12-29T07:54:55;11.00;99.90
5086;DHT22;4715;51.660;7.082;2022-12-29T07:57:17;11.00;99.90
5086;DHT22;4715;51.660;7.082;2022-12-29T07:59:39;11.00;99.90
5086;DHT22;4715;51.660;7.082;2022-12-29T08:02:01;11.00;99.90
5086;DHT22;4715;51.660;7.082;2022-12-29T08:04:24;11.10;99.90
5086;DHT22;4715;51.660;7.082;2022-12-29T08:06:46;11.10;99.90
5086;DHT22;4715;51.660;7.082;2022-12-29T08:09:08;11.10;99.90
5086;DHT22;4715;51.660;7.082;2022-12-29T08:11:30;11.10;99.90
5086;DHT22;4715;51.660;7.082;2022-12-29T08:13:51;11.10;99.90
5086;DHT22;4715;51.660;7.082;2022-12-29T08:16:13;11.10;99.90
5086;DHT22;4715;51.660;7.082;2022-12-29T08:18:35;11.10;99.90
5086;DHT22;4715;51.660;7.082;2022-12-29T08:21:03;11.20;99.90
5086;DHT22;4715;51.660;7.082;2022-12-29T08:23:26;11.20;99.90
5086;DHT22;4715;51.660;7.082;2022-12-29T08:25:57;11.20;99.90
5086;DHT22;4715;51.660;7.082;2022-12-29T08:28:18;11.20;99.90
5086;DHT22;4715;51.660;7.082;2022-12-29T08:30:40;11.20;99.90
5086;DHT22;4715;51.660;7.082;2022-12-29T08:33:02;11.20;99.90
5086;DHT22;4715;51.660;7.082;2022-12-29T08:35:24;11.20;99.90
5086;DHT22;4715;51.660;7.082;2022-12-29T08:37:47;11.20;99.90
5086;DHT22;4715;51.660;7.082;2022-12-29T08:40:10;11.20;99.90
5086;DHT22;4715;51.660;7.082;2022-12-29T08:42:32;11.10;99.90
5086;DHT22;4715;51.660;7.082;2022-12-29T08:44:54;11.10;99.90
5086;DHT22;4715;51.660;7.082;2022-12-29T08:47:15;11.10;99.90
5086;DHT22;4715;51.660;7.082;2022-12-29T08:49:37;11.20;99.90
5086;DHT22;4715;51.660;7.082;2022-12-29T08:51:59;11.20;99.90
5086;DHT22;4715;51.660;7.082;2022-12-29T08:54:23;11.20;99.90
5086;DHT22;4715;51.660;7.082;2022-12-29T08:56:45;11.20;99.90
5086;DHT22;4715;51.660;7.082;2022-12-29T08:59:07;11.20;99.90
5086;DHT22;4715;51.660;7.082;2022-12-29T09:01:29;11.20;99.90
5086;DHT22;4715;51.660;7.082;2022-12-29T09:03:52;11.20;99.90
5086;DHT22;4715;51.660;7.082;2022-12-29T09:06:14;11.20;99.90
5086;DHT22;4715;51.660;7.082;2022-12-29T09:08:37;11.10;99.90
5086;DHT22;4715;51.660;7.082;2022-12-29T09:11:07;11.10;99.90
5086;DHT22;4715;51.660;7.082;2022-12-29T09:13:31;11.20;99.90
5086;DHT22;4715;51.660;7.082;2022-12-29T09:15:57;11.20;99.90
5086;DHT22;4715;51.660;7.082;2022-12-29T09:18:19;11.30;99.90
5086;DHT22;4715;51.660;7.082;2022-12-29T09:20:41;11.30;99.90
5086;DHT22;4715;51.660;7.082;2022-12-29T09:23:03;11.30;99.90
5086;DHT22;4715;51.660;7.082;2022-12-29T09:25:26;11.40;99.90
5086;DHT22;4715;51.660;7.082;2022-12-29T09:27:49;11.40;99.90
5086;DHT22;4715;51.660;7.082;2022-12-29T09:30:13;11.40;99.90
5086;DHT22;4715;51.660;7.082;2022-12-29T09:32:35;11.40;99.90
5086;DHT22;4715;51.660;7.082;2022-12-29T09:34:57;11.50;99.90
5086;DHT22;4715;51.660;7.082;2022-12-29T09:37:19;11.50;99.90
5086;DHT22;4715;51.660;7.082;2022-12-29T09:39:41;11.50;99.90
5086;DHT22;4715;51.660;7.082;2022-12-29T09:42:07;11.50;99.90
5086;DHT22;4715;51.660;7.082;2022-12-29T09:44:48;11.50;99.90
5086;DHT22;4715;51.660;7.082;2022-12-29T09:47:14;11.50;99.90
5086;DHT22;4715;51.660;7.082;2022-12-29T09:49:42;11.50;99.90
5086;DHT22;4715;51.660;7.082;2022-12-29T09:52:13;11.50;99.90
5086;DHT22;4715;51.660;7.082;2022-12-29T09:54:45;11.50;99.90
5086;DHT22;4715;51.660;7.082;2022-12-29T09:57:16;11.50;99.90
5086;DHT22;4715;51.660;7.082;2022-12-29T09:59:43;11.50;99.90
5086;DHT22;4715;51.660;7.082;2022-12-29T10:04:54;11.40;99.90
5086;DHT22;4715;51.660;7.082;2022-12-29T10:07:23;11.40;99.90
5086;DHT22;4715;51.660;7.082;2022-12-29T10:10:03;11.40;99.90
5086;DHT22;4715;51.660;7.082;2022-12-29T10:12:53;11.50;99.90
5086;DHT22;4715;51.660;7.082;2022-12-29T10:15:33;11.50;99.90
5086;DHT22;4715;51.660;7.082;2022-12-29T10:18:06;11.50;99.90
5086;DHT22;4715;51.660;7.082;2022-12-29T10:20:38;11.40;99.90
5086;DHT22;4715;51.660;7.082;2022-12-29T10:23:19;11.50;99.90
5086;DHT22;4715;51.660;7.082;2022-12-29T10:25:43;11.50;99.90
5086;DHT22;4715;51.660;7.082;2022-12-29T10:28:12;11.50;99.90
5086;DHT22;4715;51.660;7.082;2022-12-29T10:30:39;11.50;99.90
5086;DHT22;4715;51.660;7.082;2022-12-29T10:33:04;11.60;99.90
5086;DHT22;4715;51.660;7.082;2022-12-29T10:35:32;11.60;99.90
5086;DHT22;4715;51.660;7.082;2022-12-29T10:37:59;11.60;99.90
5086;DHT22;4715;51.660;7.082;2022-12-29T10:40:26;11.60;99.90
5086;DHT22;4715;51.660;7.082;2022-12-29T10:42:52;11.60;99.90
5086;DHT22;4715;51.660;7.082;2022-12-29T10:45:16;11.60;99.90
5086;DHT22;4715;51.660;7.082;2022-12-29T10:47:47;11.60;99.90
5086;DHT22;4715;51.660;7.082;2022-12-29T10:50:12;11.60;99.90
5086;DHT22;4715;51.660;7.082;2022-12-29T10:52:35;11.60;99.90
5086;DHT22;4715;51.660;7.082;2022-12-29T10:55:03;11.70;99.90
5086;DHT22;4715;51.660;7.082;2022-12-29T10:57:30;11.70;99.90
5086;DHT22;4715;51.660;7.082;2022-12-29T10:59:54;11.70;99.90
5086;DHT22;4715;51.660;7.082;2022-12-29T11:02:35;11.70;99.90
5086;DHT22;4715;51.660;7.082;2022-12-29T11:05:06;11.70;99.90
5086;DHT22;4715;51.660;7.082;2022-12-29T11:07:30;11.70;99.90
5086;DHT22;4715;51.660;7.082;2022-12-29T11:09:52;11.70;99.90
5086;DHT22;4715;51.660;7.082;2022-12-29T11:12:23;11.60;99.90
5086;DHT22;4715;51.660;7.082;2022-12-29T11:14:46;11.60;99.90
5086;DHT22;4715;51.660;7.082;2022-12-29T11:17:14;11.60;99.90
5086;DHT22;4715;51.660;7.082;2022-12-29T11:19:36;11.60;99.90
5086;DHT22;4715;51.660;7.082;2022-12-29T11:22:13;11.60;99.90
5086;DHT22;4715;51.660;7.082;2022-12-29T11:24:43;11.60;99.90
5086;DHT22;4715;51.660;7.082;2022-12-29T11:27:13;11.60;99.90
5086;DHT22;4715;51.660;7.082;2022-12-29T11:29:39;11.60;99.90
5086;DHT22;4715;51.660;7.082;2022-12-29T11:32:11;11.60;99.90
5086;DHT22;4715;51.660;7.082;2022-12-29T11:34:35;11.60;99.90
5086;DHT22;4715;51.660;7.082;2022-12-29T11:37:00;11.60;99.90
5086;DHT22;4715;51.660;7.082;2022-12-29T11:39:31;11.60;99.90
5086;DHT22;4715;51.660;7.082;2022-12-29T11:41:54;11.60;99.90
5086;DHT22;4715;51.660;7.082;2022-12-29T11:44:18;11.60;99.90
5086;DHT22;4715;51.660;7.082;2022-12-29T11:46:40;11.50;99.90
5086;DHT22;4715;51.660;7.082;2022-12-29T11:49:12;11.50;99.90
5086;DHT22;4715;51.660;7.082;2022-12-29T11:51:39;11.60;99.90
5086;DHT22;4715;51.660;7.082;2022-12-29T11:54:04;11.50;99.90
5086;DHT22;4715;51.660;7.082;2022-12-29T11:56:36;11.50;99.90
5086;DHT22;4715;51.660;7.082;2022-12-29T11:59:24;11.50;99.90
5086;DHT22;4715;51.660;7.082;2022-12-29T12:01:47;11.50;99.90
5086;DHT22;4715;51.660;7.082;2022-12-29T12:04:12;11.50;99.90
5086;DHT22;4715;51.660;7.082;2022-12-29T12:06:43;11.50;99.90
5086;DHT22;4715;51.660;7.082;2022-12-29T12:09:14;11.50;99.90
5086;DHT22;4715;51.660;7.082;2022-12-29T12:11:40;11.50;99.90
5086;DHT22;4715;51.660;7.082;2022-12-29T12:14:12;11.50;99.90
5086;DHT22;4715;51.660;7.082;2022-12-29T12:16:39;11.50;99.90
5086;DHT22;4715;51.660;7.082;2022-12-29T12:19:06;11.50;99.90
5086;DHT22;4715;51.660;7.082;2022-12-29T12:21:34;11.50;99.90
5086;DHT22;4715;51.660;7.082;2022-12-29T12:24:21;11.50;99.90
5086;DHT22;4715;51.660;7.082;2022-12-29T12:26:58;11.50;99.90
5086;DHT22;4715;51.660;7.082;2022-12-29T12:29:25;11.50;99.90
5086;DHT22;4715;51.660;7.082;2022-12-29T12:31:53;11.50;99.90
5086;DHT22;4715;51.660;7.082;2022-12-29T12:34:20;11.50;99.90
5086;DHT22;4715;51.660;7.082;2022-12-29T12:37:02;11.50;99.90
5086;DHT22;4715;51.660;7.082;2022-12-29T12:39:29;11.50;99.90
5086;DHT22;4715;51.660;7.082;2022-12-29T12:42:06;11.40;99.90
5086;DHT22;4715;51.660;7.082;2022-12-29T12:44:37;11.50;99.90
5086;DHT22;4715;51.660;7.082;2022-12-29T12:47:18;11.40;99.90
5086;DHT22;4715;51.660;7.082;2022-12-29T12:50:08;11.50;99.90
5086;DHT22;4715;51.660;7.082;2022-12-29T12:52:39;11.50;99.90
5086;DHT22;4715;51.660;7.082;2022-12-29T12:55:25;11.40;99.90
5086;DHT22;4715;51.660;7.082;2022-12-29T12:57:56;11.40;99.90
5086;DHT22;4715;51.660;7.082;2022-12-29T13:00:20;11.30;99.90
5086;DHT22;4715;51.660;7.082;2022-12-29T13:02:51;11.40;99.90
5086;DHT22;4715;51.660;7.082;2022-12-29T13:05:44;11.30;99.90
5086;DHT22;4715;51.660;7.082;2022-12-29T13:08:30;11.20;99.90
5086;DHT22;4715;51.660;7.082;2022-12-29T13:11:16;11.20;99.90
5086;DHT22;4715;51.660;7.082;2022-12-29T13:16:36;11.20;99.90
5086;DHT22;4715;51.660;7.082;2022-12-29T13:19:09;11.10;99.90
5086;DHT22;4715;51.660;7.082;2022-12-29T13:21:49;11.10;99.90
5086;DHT22;4715;51.660;7.082;2022-12-29T13:24:16;11.20;99.90
5086;DHT22;4715;51.660;7.082;2022-12-29T13:26:45;11.20;99.90
5086;DHT22;4715;51.660;7.082;2022-12-29T13:29:17;11.20;99.90
5086;DHT22;4715;51.660;7.082;2022-12-29T13:31:47;11.30;99.90
5086;DHT22;4715;51.660;7.082;2022-12-29T13:34:18;11.30;99.90
5086;DHT22;4715;51.660;7.082;2022-12-29T13:36:47;11.40;99.90
5086;DHT22;4715;51.660;7.082;2022-12-29T13:39:15;11.40;99.90
5086;DHT22;4715;51.660;7.082;2022-12-29T13:41:40;11.40;99.90
5086;DHT22;4715;51.660;7.082;2022-12-29T13:44:05;11.40;99.90
5086;DHT22;4715;51.660;7.082;2022-12-29T13:46:36;11.40;99.90
5086;DHT22;4715;51.660;7.082;2022-12-29T13:49:02;11.40;99.90
5086;DHT22;4715;51.660;7.082;2022-12-29T13:51:27;11.40;99.90
5086;DHT22;4715;51.660;7.082;2022-12-29T13:54:01;11.40;99.90
5086;DHT22;4715;51.660;7.082;2022-12-29T13:56:31;11.40;99.90
5086;DHT22;4715;51.660;7.082;2022-12-29T13:59:00;11.50;99.90
5086;DHT22;4715;51.660;7.082;2022-12-29T14:01:30;11.50;99.90
5086;DHT22;4715;51.660;7.082;2022-12-29T14:03:57;11.50;99.90
5086;DHT22;4715;51.660;7.082;2022-12-29T14:06:22;11.50;99.90
5086;DHT22;4715;51.660;7.082;2022-12-29T14:08:45;11.40;99.90
5086;DHT22;4715;51.660;7.082;2022-12-29T14:11:09;11.40;99.90
5086;DHT22;4715;51.660;7.082;2022-12-29T14:13:31;11.40;99.90
5086;DHT22;4715;51.660;7.082;2022-12-29T14:15:59;11.40;99.90
5086;DHT22;4715;51.660;7.082;2022-12-29T14:18:24;11.40;99.90
5086;DHT22;4715;51.660;7.082;2022-12-29T14:20:52;11.40;99.90
5086;DHT22;4715;51.660;7.082;2022-12-29T14:23:17;11.40;99.90
5086;DHT22;4715;51.660;7.082;2022-12-29T14:25:54;11.40;99.90
5086;DHT22;4715;51.660;7.082;2022-12-29T14:28:22;11.40;99.90
5086;DHT22;4715;51.660;7.082;2022-12-29T14:30:52;11.40;99.90
5086;DHT22;4715;51.660;7.082;2022-12-29T14:33:15;11.30;99.90
5086;DHT22;4715;51.660;7.082;2022-12-29T14:35:40;11.30;99.90
5086;DHT22;4715;51.660;7.082;2022-12-29T14:38:30;11.30;99.90
5086;DHT22;4715;51.660;7.082;2022-12-29T14:41:26;11.30;99.90
5086;DHT22;4715;51.660;7.082;2022-12-29T14:43:56;11.30;99.90
5086;DHT22;4715;51.660;7.082;2022-12-29T14:46:18;11.20;99.90
5086;DHT22;4715;51.660;7.082;2022-12-29T14:48:43;11.20;99.90
5086;DHT22;4715;51.660;7.082;2022-12-29T14:51:30;11.20;99.90
5086;DHT22;4715;51.660;7.082;2022-12-29T14:53:54;11.10;99.90
5086;DHT22;4715;51.660;7.082;2022-12-29T14:56:17;11.00;99.90
5086;DHT22;4715;51.660;7.082;2022-12-29T14:58:46;11.00;99.90
5086;DHT22;4715;51.660;7.082;2022-12-29T15:01:23;11.00;99.90
5086;DHT22;4715;51.660;7.082;2022-12-29T15:03:48;11.00;99.90
5086;DHT22;4715;51.660;7.082;2022-12-29T15:06:13;10.90;99.90
5086;DHT22;4715;51.660;7.082;2022-12-29T15:08:39;10.90;99.90
5086;DHT22;4715;51.660;7.082;2022-12-29T15:11:06;10.80;99.90
5086;DHT22;4715;51.660;7.082;2022-12-29T15:13:34;10.80;99.90
5086;DHT22;4715;51.660;7.082;2022-12-29T15:15:57;10.80;99.90
5086;DHT22;4715;51.660;7.082;2022-12-29T15:18:24;10.80;99.90
5086;DHT22;4715;51.660;7.082;2022-12-29T15:20:46;10.80;99.90
5086;DHT22;4715;51.660;7.082;2022-12-29T15:23:13;10.80;99.90
5086;DHT22;4715;51.660;7.082;2022-12-29T15:25:36;10.80;99.90
5086;DHT22;4715;51.660;7.082;2022-12-29T15:28:01;10.80;99.90
5086;DHT22;4715;51.660;7.082;2022-12-29T15:30:23;10.80;99.90
5086;DHT22;4715;51.660;7.082;2022-12-29T15:32:47;10.90;99.90
5086;DHT22;4715;51.660;7.082;2022-12-29T15:35:27;10.90;99.90
5086;DHT22;4715;51.660;7.082;2022-12-29T15:37:49;10.90;99.90
5086;DHT22;4715;51.660;7.082;2022-12-29T15:40:22;10.90;99.90
5086;DHT22;4715;51.660;7.082;2022-12-29T15:45:34;10.90;99.90
5086;DHT22;4715;51.660;7.082;2022-12-29T15:47:56;10.90;99.90
5086;DHT22;4715;51.660;7.082;2022-12-29T15:50:22;10.90;99.90
5086;DHT22;4715;51.660;7.082;2022-12-29T15:52:46;10.90;99.90
5086;DHT22;4715;51.660;7.082;2022-12-29T15:55:19;10.90;99.90
5086;DHT22;4715;51.660;7.082;2022-12-29T15:57:43;10.90;99.90
5086;DHT22;4715;51.660;7.082;2022-12-29T16:00:22;10.90;99.90
5086;DHT22;4715;51.660;7.082;2022-12-29T16:02:46;10.90;99.90
5086;DHT22;4715;51.660;7.082;2022-12-29T16:05:08;10.90;99.90
5086;DHT22;4715;51.660;7.082;2022-12-29T16:07:31;10.90;99.90
5086;DHT22;4715;51.660;7.082;2022-12-29T16:09:55;10.90;99.90
5086;DHT22;4715;51.660;7.082;2022-12-29T16:12:21;10.90;99.90